Cando, North Dakota
Current Conditions -  °F | °C
As of 9:55 AM on Friday 24 Oct 2014 (Local Time) from K9D7 Reporting Station
Few Clouds Few Clouds  
Wind Chill: 54°   Ceiling: Unl
Heat Index: 54°   Visibility: 10mi
Dew Point: 39°   Wind: 13mph
Humidity: 58%   Direction: 250°WSW
Pressure: 29.77"   Gusts: NA
Location:  48.49°N, 99.21°W
Report Text: K9D7 241455Z AUTO 25011KT 10SM FEW110 12/04 A2977 RMK AO2
Loading
Personal Weather Stations






























Interactive Weather Map
Tropical Storm Tracking
New forecast layout! Learn more

10-Day Weather Forecast

Advertisements
Track Severe Weather on mobile